Time;durP1;ratioP1;P1;durP2;ratioP2;P2;SDS_P1;SDS_P2;PMS_P1;PMS_P2;Temp;Humidity;BMP_temperature;BMP_pressure;BME280_temperature;BME280_humidity;BME280_pressure;Samples;Min_cycle;Max_cycle;Signal;HPM_P1;HPM_P2
2023/03/02 00:02:28;;;;;;;;;;;2.60;53.30;;;;;;8351681;28;20280;-70
2023/03/02 00:06:31;;;;;;;;;;;2.60;54.60;;;;;;8351859;28;19951;-70
2023/03/02 00:10:33;;;;;;;;;;;2.60;55.10;;;;;;8388309;28;19928;-70
2023/03/02 00:14:34;;;;;;;;;;;2.60;54.60;;;;;;8354846;28;19972;-70
2023/03/02 00:23:39;;;;;;;;;;;2.50;55.00;;;;;;8358419;28;20240;-69
2023/03/02 00:27:41;;;;;;;;;;;2.50;55.90;;;;;;8362116;28;20047;-69
2023/03/02 00:46:52;;;;;;;;;;;2.30;56.30;;;;;;8361620;28;19920;-69
2023/03/02 00:50:54;;;;;;;;;;;2.20;58.80;;;;;;8373719;28;19980;-69
2023/03/02 00:54:56;;;;;;;;;;;2.20;57.70;;;;;;8392016;28;19983;-69
2023/03/02 00:59:02;;;;;;;;;;;2.10;58.40;;;;;;8392525;28;20023;-69
2023/03/02 01:13:11;;;;;;;;;;;2.00;57.90;;;;;;8384740;28;19962;-70
2023/03/02 01:17:14;;;;;;;;;;;2.00;60.10;;;;;;8389964;28;19928;-70
2023/03/02 01:21:15;;;;;;;;;;;2.00;59.80;;;;;;8386296;28;20391;-70
2023/03/02 01:25:17;;;;;;;;;;;2.00;59.50;;;;;;8383503;28;20353;-70
2023/03/02 01:29:19;;;;;;;;;;;2.00;61.40;;;;;;8387643;28;19924;-70
2023/03/02 01:33:20;;;;;;;;;;;2.00;60.00;;;;;;8372802;28;20483;-70
2023/03/02 01:37:22;;;;;;;;;;;2.00;58.80;;;;;;8385503;28;19931;-70
2023/03/02 01:41:24;;;;;;;;;;;1.90;59.60;;;;;;8382959;28;19979;-70
2023/03/02 01:45:44;;;;;;;;;;;1.90;60.40;;;;;;8386239;28;19924;-70
2023/03/02 01:50:09;;;;;;;;;;;1.90;60.50;;;;;;8402527;28;19928;-70
2023/03/02 01:54:16;;;;;;;;;;;1.80;61.50;;;;;;8363166;28;19925;-70
2023/03/02 01:58:18;;;;;;;;;;;1.80;61.40;;;;;;8390389;28;19924;-70
2023/03/02 02:02:19;;;;;;;;;;;1.80;62.10;;;;;;8373191;28;19963;-70
2023/03/02 02:06:23;;;;;;;;;;;1.80;64.50;;;;;;8391936;28;20019;-70
2023/03/02 02:10:25;;;;;;;;;;;1.80;62.00;;;;;;8391309;28;19925;-70
2023/03/02 02:14:27;;;;;;;;;;;1.70;61.70;;;;;;8382238;28;19924;-70
2023/03/02 02:18:28;;;;;;;;;;;1.70;63.80;;;;;;8384264;28;19936;-70
2023/03/02 02:22:30;;;;;;;;;;;1.70;63.80;;;;;;8386307;28;19925;-69
2023/03/02 02:26:35;;;;;;;;;;;1.60;65.50;;;;;;8386194;28;19925;-69
2023/03/02 02:30:38;;;;;;;;;;;1.60;62.90;;;;;;8388322;28;19924;-69
2023/03/02 02:35:01;;;;;;;;;;;1.60;64.90;;;;;;8373898;28;20352;-69
2023/03/02 02:39:04;;;;;;;;;;;1.60;66.70;;;;;;8388003;28;20307;-69
2023/03/02 02:43:08;;;;;;;;;;;1.50;62.90;;;;;;8388291;28;20377;-69
2023/03/02 02:47:18;;;;;;;;;;;1.50;62.80;;;;;;8386188;28;19925;-69
2023/03/02 02:56:18;;;;;;;;;;;1.50;63.70;;;;;;8380545;28;19934;-70
2023/03/02 03:00:20;;;;;;;;;;;1.50;66.30;;;;;;8375945;28;19924;-70
2023/03/02 03:04:25;;;;;;;;;;;1.40;67.60;;;;;;8382790;28;19924;-69
2023/03/02 03:19:12;;;;;;;;;;;1.40;64.50;;;;;;8386366;28;20250;-70
2023/03/02 03:23:14;;;;;;;;;;;1.40;63.70;;;;;;8391660;28;19928;-69
2023/03/02 03:27:16;;;;;;;;;;;1.30;66.90;;;;;;8391917;28;19946;-69
2023/03/02 03:31:17;;;;;;;;;;;1.30;64.80;;;;;;8376402;28;19939;-69
2023/03/02 03:35:19;;;;;;;;;;;1.30;67.90;;;;;;8397087;28;19925;-69
2023/03/02 03:39:20;;;;;;;;;;;1.30;66.60;;;;;;8390318;28;19967;-69
2023/03/02 03:43:22;;;;;;;;;;;1.20;65.50;;;;;;8387057;28;19924;-69
2023/03/02 03:47:24;;;;;;;;;;;1.20;66.60;;;;;;8388999;28;20288;-69
2023/03/02 03:51:26;;;;;;;;;;;1.30;69.00;;;;;;8393986;28;19959;-70
2023/03/02 03:55:28;;;;;;;;;;;1.20;69.80;;;;;;8391839;28;20051;-70
2023/03/02 03:59:30;;;;;;;;;;;1.20;68.60;;;;;;8387739;28;20306;-70
2023/03/02 04:03:32;;;;;;;;;;;1.20;71.40;;;;;;8396362;28;19924;-69
2023/03/02 04:07:35;;;;;;;;;;;1.20;69.90;;;;;;8384412;28;19924;-69
2023/03/02 04:16:40;;;;;;;;;;;1.10;68.90;;;;;;8391743;28;19955;-69
2023/03/02 04:20:42;;;;;;;;;;;1.10;69.20;;;;;;8393531;28;19924;-69
2023/03/02 04:24:43;;;;;;;;;;;1.10;67.10;;;;;;8392696;28;19924;-70
2023/03/02 04:28:49;;;;;;;;;;;1.00;67.90;;;;;;8376963;28;20380;-69
2023/03/02 04:32:51;;;;;;;;;;;1.00;70.00;;;;;;8392209;28;19930;-69
2023/03/02 04:36:53;;;;;;;;;;;1.00;69.50;;;;;;8388492;28;19924;-69
2023/03/02 04:40:55;;;;;;;;;;;1.00;67.50;;;;;;8385283;28;19925;-70
2023/03/02 04:44:57;;;;;;;;;;;0.90;70.10;;;;;;8388572;28;19929;-69
2023/03/02 04:48:59;;;;;;;;;;;0.90;68.90;;;;;;8389500;28;19989;-69
2023/03/02 04:53:00;;;;;;;;;;;0.90;67.00;;;;;;8393900;28;19977;-69
2023/03/02 04:57:02;;;;;;;;;;;0.80;68.10;;;;;;8391374;28;19925;-70
2023/03/02 05:01:04;;;;;;;;;;;0.80;67.50;;;;;;8383992;28;19929;-69
2023/03/02 05:05:06;;;;;;;;;;;0.80;70.40;;;;;;8385501;28;19928;-69
2023/03/02 05:09:07;;;;;;;;;;;0.70;70.30;;;;;;8373641;28;20023;-69
2023/03/02 05:23:22;;;;;;;;;;;0.60;69.70;;;;;;8388216;28;19927;-69
2023/03/02 05:27:26;;;;;;;;;;;0.60;69.40;;;;;;8388754;28;19925;-69
2023/03/02 05:31:33;;;;;;;;;;;0.50;70.30;;;;;;8390065;28;19928;-69
2023/03/02 05:35:35;;;;;;;;;;;0.50;70.40;;;;;;8375856;28;19928;-69
2023/03/02 05:39:38;;;;;;;;;;;0.50;69.00;;;;;;8388051;28;19928;-69
2023/03/02 05:43:41;;;;;;;;;;;0.40;69.00;;;;;;8384133;28;20124;-69
2023/03/02 05:47:43;;;;;;;;;;;0.40;71.10;;;;;;8385952;28;19996;-69
2023/03/02 05:51:44;;;;;;;;;;;0.40;69.70;;;;;;8382244;28;19925;-69
2023/03/02 05:55:46;;;;;;;;;;;0.30;70.60;;;;;;8386729;28;19931;-69
2023/03/02 05:59:49;;;;;;;;;;;0.30;69.70;;;;;;8389255;28;19930;-69
2023/03/02 06:03:51;;;;;;;;;;;0.30;70.20;;;;;;8388753;28;20366;-69
2023/03/02 06:07:53;;;;;;;;;;;0.30;70.20;;;;;;8390334;28;19997;-69
2023/03/02 06:11:55;;;;;;;;;;;0.20;70.10;;;;;;8383937;28;19958;-69
2023/03/02 06:15:56;;;;;;;;;;;0.30;69.80;;;;;;8387170;28;19951;-69
2023/03/02 06:19:58;;;;;;;;;;;0.30;71.30;;;;;;8371777;28;19928;-69
2023/03/02 06:23:59;;;;;;;;;;;0.20;71.40;;;;;;8386165;28;19932;-69
2023/03/02 06:28:01;;;;;;;;;;;0.20;70.90;;;;;;8371880;28;19979;-69
2023/03/02 06:32:03;;;;;;;;;;;0.20;72.10;;;;;;8383045;28;19925;-69
2023/03/02 06:36:05;;;;;;;;;;;0.20;72.70;;;;;;8383900;28;20387;-69
2023/03/02 06:40:08;;;;;;;;;;;0.20;71.10;;;;;;8379331;28;20292;-69
2023/03/02 06:44:11;;;;;;;;;;;0.20;74.00;;;;;;8385594;28;20364;-70
2023/03/02 06:48:13;;;;;;;;;;;0.20;72.10;;;;;;8390253;28;19928;-69
2023/03/02 06:52:15;;;;;;;;;;;0.30;71.30;;;;;;8397518;28;19925;-69
2023/03/02 06:56:16;;;;;;;;;;;0.30;72.40;;;;;;8392253;28;19972;-70
2023/03/02 07:00:24;;;;;;;;;;;0.30;73.30;;;;;;8391120;28;20416;-69
2023/03/02 07:04:27;;;;;;;;;;;0.30;72.90;;;;;;8387641;28;19932;-69
2023/03/02 07:08:29;;;;;;;;;;;0.40;75.00;;;;;;8393352;28;19931;-69
2023/03/02 07:12:30;;;;;;;;;;;0.40;74.50;;;;;;8389119;28;19935;-69
2023/03/02 07:16:33;;;;;;;;;;;0.50;73.60;;;;;;8391035;28;19932;-69
2023/03/02 07:20:35;;;;;;;;;;;0.60;74.00;;;;;;8395031;28;19925;-70
2023/03/02 07:24:37;;;;;;;;;;;0.70;75.70;;;;;;8378573;28;19928;-69
2023/03/02 07:28:42;;;;;;;;;;;0.80;79.00;;;;;;8391155;28;19977;-69
2023/03/02 07:32:43;;;;;;;;;;;0.90;75.30;;;;;;8390052;28;19974;-70
2023/03/02 07:36:45;;;;;;;;;;;1.00;78.90;;;;;;8379125;28;20383;-69
2023/03/02 07:40:46;;;;;;;;;;;1.10;75.70;;;;;;8398423;28;19963;-70
2023/03/02 07:44:50;;;;;;;;;;;1.20;75.60;;;;;;8394722;28;19931;-70
2023/03/02 07:48:52;;;;;;;;;;;1.20;79.80;;;;;;8392455;28;19967;-70
2023/03/02 07:52:54;;;;;;;;;;;1.30;78.70;;;;;;8394429;28;20379;-69
2023/03/02 07:56:56;;;;;;;;;;;1.40;79.90;;;;;;8397206;28;19931;-69
2023/03/02 08:00:58;;;;;;;;;;;1.50;77.20;;;;;;8382858;28;19929;-70
2023/03/02 08:04:59;;;;;;;;;;;1.70;78.10;;;;;;8390745;28;19996;-69
2023/03/02 08:09:02;;;;;;;;;;;1.80;78.50;;;;;;8387962;28;19928;-69
2023/03/02 08:13:04;;;;;;;;;;;1.90;79.20;;;;;;8392633;28;19975;-70
2023/03/02 08:17:06;;;;;;;;;;;2.00;79.10;;;;;;8389386;28;20020;-69
2023/03/02 08:31:36;;;;;;;;;;;2.50;81.70;;;;;;8392985;28;19924;-70
2023/03/02 08:35:37;;;;;;;;;;;2.70;82.10;;;;;;8393842;28;20388;-70
2023/03/02 08:39:39;;;;;;;;;;;2.80;82.20;;;;;;8388135;28;19929;-70
2023/03/02 08:43:41;;;;;;;;;;;3.00;83.80;;;;;;8386948;28;19935;-69
2023/03/02 08:47:42;;;;;;;;;;;3.10;82.60;;;;;;8391172;28;19924;-69
2023/03/02 08:51:44;;;;;;;;;;;3.30;83.20;;;;;;8388233;28;19963;-70
2023/03/02 08:55:46;;;;;;;;;;;3.40;86.70;;;;;;8386697;28;19956;-69
2023/03/02 08:59:48;;;;;;;;;;;3.60;87.00;;;;;;8390394;28;19932;-69
2023/03/02 09:03:49;;;;;;;;;;;3.80;86.90;;;;;;8392904;28;19938;-69
2023/03/02 09:07:51;;;;;;;;;;;4.00;85.20;;;;;;8394189;28;19936;-70
2023/03/02 09:11:53;;;;;;;;;;;4.20;84.40;;;;;;8381804;28;20023;-69
2023/03/02 09:15:54;;;;;;;;;;;4.30;84.90;;;;;;8387145;28;20003;-70
2023/03/02 09:19:56;;;;;;;;;;;4.50;85.70;;;;;;8392633;28;19990;-70
2023/03/02 09:23:58;;;;;;;;;;;4.60;86.90;;;;;;8385482;28;19929;-70
2023/03/02 09:27:59;;;;;;;;;;;4.70;87.60;;;;;;8371715;28;19943;-70
2023/03/02 09:32:01;;;;;;;;;;;4.90;86.10;;;;;;8379590;28;19932;-69
2023/03/02 09:36:06;;;;;;;;;;;5.00;87.10;;;;;;8389447;28;20329;-70
2023/03/02 09:40:15;;;;;;;;;;;5.20;86.60;;;;;;8389726;28;19932;-70
2023/03/02 09:44:16;;;;;;;;;;;5.40;88.60;;;;;;8389506;28;19946;-70
2023/03/02 09:48:37;;;;;;;;;;;5.60;88.20;;;;;;8391821;28;20407;-70
2023/03/02 09:52:41;;;;;;;;;;;5.80;88.10;;;;;;8393580;28;19928;-70
2023/03/02 09:56:47;;;;;;;;;;;6.10;90.30;;;;;;8393265;28;19924;-70
2023/03/02 10:00:49;;;;;;;;;;;6.40;90.40;;;;;;8382612;28;19924;-70
2023/03/02 10:04:59;;;;;;;;;;;6.90;91.70;;;;;;8386716;28;19942;-70
2023/03/02 10:09:01;;;;;;;;;;;7.20;93.10;;;;;;8371085;28;19955;-70
2023/03/02 10:13:09;;;;;;;;;;;7.50;94.60;;;;;;8388017;28;19971;-70
2023/03/02 10:17:21;;;;;;;;;;;7.80;95.80;;;;;;8387842;28;20083;-70
2023/03/02 10:21:36;;;;;;;;;;;8.20;97.40;;;;;;8392420;28;19924;-70
2023/03/02 10:25:46;;;;;;;;;;;8.50;98.40;;;;;;8387102;28;19931;-70
2023/03/02 10:30:06;;;;;;;;;;;8.90;99.90;;;;;;8392054;28;19932;-70
2023/03/02 10:34:09;;;;;;;;;;;9.00;99.90;;;;;;8390895;28;20027;-70
2023/03/02 10:38:11;;;;;;;;;;;9.00;99.90;;;;;;8369128;28;19934;-70
2023/03/02 10:42:21;;;;;;;;;;;9.30;99.90;;;;;;8372233;28;19925;-70
2023/03/02 10:46:22;;;;;;;;;;;9.70;99.90;;;;;;8386181;28;19924;-70
2023/03/02 11:00:54;;;;;;;;;;;11.50;99.90;;;;;;8385290;28;20434;-70
2023/03/02 11:04:57;;;;;;;;;;;12.10;99.90;;;;;;8382812;28;19932;-70
2023/03/02 11:08:58;;;;;;;;;;;12.70;99.90;;;;;;8388698;28;19928;-70
2023/03/02 11:13:00;;;;;;;;;;;13.20;99.90;;;;;;8363456;28;20398;-70
2023/03/02 11:17:19;;;;;;;;;;;13.70;99.90;;;;;;8389566;28;20030;-70
2023/03/02 11:21:34;;;;;;;;;;;14.10;99.90;;;;;;8367268;28;19967;-70
2023/03/02 11:35:42;;;;;;;;;;;14.60;99.90;;;;;;8386286;28;20505;-70
2023/03/02 11:39:44;;;;;;;;;;;14.90;99.90;;;;;;8381664;28;20500;-70
2023/03/02 11:43:58;;;;;;;;;;;15.20;99.90;;;;;;8375176;28;19924;-70
2023/03/02 11:48:03;;;;;;;;;;;15.70;99.90;;;;;;8363274;28;20443;-70
2023/03/02 11:52:08;;;;;;;;;;;16.10;99.90;;;;;;8352075;28;20008;-70
2023/03/02 11:56:10;;;;;;;;;;;16.20;99.90;;;;;;8366469;28;19932;-70
2023/03/02 12:00:15;;;;;;;;;;;16.00;99.90;;;;;;8365376;28;19929;-70
2023/03/02 12:04:28;;;;;;;;;;;16.00;99.90;;;;;;8347449;28;20023;-70
2023/03/02 12:08:32;;;;;;;;;;;16.30;99.90;;;;;;8365651;28;19939;-70
2023/03/02 12:12:37;;;;;;;;;;;17.00;99.90;;;;;;8367111;28;19925;-70
2023/03/02 12:16:40;;;;;;;;;;;17.60;99.90;;;;;;8363894;28;20376;-70
2023/03/02 12:20:42;;;;;;;;;;;18.10;99.90;;;;;;8347600;28;19933;-70
2023/03/02 12:24:43;;;;;;;;;;;18.50;99.90;;;;;;8371585;28;20367;-70
2023/03/02 12:29:00;;;;;;;;;;;18.90;99.90;;;;;;8366262;28;19975;-70
2023/03/02 12:33:11;;;;;;;;;;;19.10;99.90;;;;;;8366076;28;19925;-70
2023/03/02 12:37:19;;;;;;;;;;;19.10;99.90;;;;;;8376960;28;19971;-70
2023/03/02 12:41:30;;;;;;;;;;;19.00;99.90;;;;;;8364011;28;19932;-70
2023/03/02 12:45:51;;;;;;;;;;;18.90;99.90;;;;;;8381677;28;19932;-70
2023/03/02 12:50:03;;;;;;;;;;;18.80;99.90;;;;;;8361418;28;19990;-70
2023/03/02 12:54:06;;;;;;;;;;;18.50;99.90;;;;;;8362620;28;20377;-70
2023/03/02 12:58:16;;;;;;;;;;;18.30;99.90;;;;;;8361620;28;19934;-70
2023/03/02 13:02:19;;;;;;;;;;;18.40;99.90;;;;;;8358527;28;19985;-70
2023/03/02 13:06:22;;;;;;;;;;;18.70;98.00;;;;;;8362079;28;19924;-70
2023/03/02 13:10:34;;;;;;;;;;;18.60;99.80;;;;;;8367735;28;19931;-70
2023/03/02 13:14:38;;;;;;;;;;;18.00;99.00;;;;;;8360594;28;19952;-70
2023/03/02 13:18:40;;;;;;;;;;;17.30;96.40;;;;;;8362088;28;20019;-70
2023/03/02 13:22:42;;;;;;;;;;;16.60;94.20;;;;;;8362834;28;19971;-70
2023/03/02 13:26:52;;;;;;;;;;;16.20;91.70;;;;;;8382959;28;19925;-70
2023/03/02 13:30:55;;;;;;;;;;;15.90;89.60;;;;;;8365613;28;19928;-70
2023/03/02 13:34:58;;;;;;;;;;;15.60;84.90;;;;;;8343372;28;20399;-70
2023/03/02 13:39:00;;;;;;;;;;;15.30;83.50;;;;;;8346606;28;20027;-70
2023/03/02 13:43:07;;;;;;;;;;;15.20;81.90;;;;;;8366453;28;19924;-70
2023/03/02 13:47:16;;;;;;;;;;;15.20;80.60;;;;;;8363363;28;19978;-70
2023/03/02 13:51:19;;;;;;;;;;;15.30;79.30;;;;;;8359775;28;20383;-69
2023/03/02 13:55:21;;;;;;;;;;;15.10;78.10;;;;;;8364951;28;19939;-70
2023/03/02 13:59:23;;;;;;;;;;;15.00;76.80;;;;;;8365198;28;20269;-70
2023/03/02 14:03:26;;;;;;;;;;;14.90;76.40;;;;;;8368653;28;19924;-70
2023/03/02 14:07:28;;;;;;;;;;;14.80;75.90;;;;;;8344745;28;19938;-70
2023/03/02 14:11:33;;;;;;;;;;;14.80;75.90;;;;;;8356867;28;19925;-70
2023/03/02 14:15:37;;;;;;;;;;;14.80;75.40;;;;;;8363471;28;20356;-70
2023/03/02 14:19:39;;;;;;;;;;;14.80;75.30;;;;;;8365988;28;20030;-70
2023/03/02 14:23:41;;;;;;;;;;;14.70;76.10;;;;;;8365074;28;19935;-70
2023/03/02 14:27:42;;;;;;;;;;;14.70;76.00;;;;;;8363745;28;20342;-70
2023/03/02 14:31:44;;;;;;;;;;;14.80;76.50;;;;;;8358838;28;19925;-70
2023/03/02 14:35:46;;;;;;;;;;;14.80;76.60;;;;;;8356905;28;19928;-70
2023/03/02 14:39:53;;;;;;;;;;;15.50;78.80;;;;;;8359705;28;19924;-70
2023/03/02 14:43:56;;;;;;;;;;;16.80;83.50;;;;;;8362787;28;19940;-70
2023/03/02 14:47:57;;;;;;;;;;;17.90;87.00;;;;;;8360547;28;19925;-70
2023/03/02 14:52:01;;;;;;;;;;;18.70;90.30;;;;;;8348879;28;19929;-70
2023/03/02 14:56:05;;;;;;;;;;;19.70;91.90;;;;;;8356381;28;19925;-70
2023/03/02 15:00:11;;;;;;;;;;;20.40;93.10;;;;;;8359378;28;20591;-70
2023/03/02 15:04:13;;;;;;;;;;;20.90;93.40;;;;;;8356090;28;20465;-70
2023/03/02 15:08:14;;;;;;;;;;;21.40;93.40;;;;;;8360815;28;19971;-70
2023/03/02 15:12:16;;;;;;;;;;;21.70;93.10;;;;;;8362158;28;19978;-70
2023/03/02 15:16:17;;;;;;;;;;;21.80;93.30;;;;;;8363557;28;19932;-70
2023/03/02 15:20:19;;;;;;;;;;;21.80;92.50;;;;;;8363245;28;20523;-70
2023/03/02 15:24:22;;;;;;;;;;;21.80;91.10;;;;;;8356337;28;19929;-70
2023/03/02 15:28:23;;;;;;;;;;;21.80;89.10;;;;;;8367845;28;19940;-70
2023/03/02 15:32:25;;;;;;;;;;;21.60;88.70;;;;;;8362060;28;19960;-70
2023/03/02 15:46:31;;;;;;;;;;;20.20;82.30;;;;;;8363289;28;20437;-70
2023/03/02 15:50:33;;;;;;;;;;;19.60;81.20;;;;;;8327549;28;20393;-70
2023/03/02 15:54:34;;;;;;;;;;;19.50;81.20;;;;;;8326424;28;20379;-70
2023/03/02 16:08:43;;;;;;;;;;;18.70;78.10;;;;;;8335106;28;19963;-70
2023/03/02 16:12:45;;;;;;;;;;;18.60;78.00;;;;;;8324666;28;19925;-70
2023/03/02 16:16:47;;;;;;;;;;;18.50;77.50;;;;;;8328350;28;19950;-70
2023/03/02 16:20:48;;;;;;;;;;;18.00;76.10;;;;;;8359599;28;20043;-70
2023/03/02 16:24:50;;;;;;;;;;;17.40;74.70;;;;;;8327343;28;19976;-70
2023/03/02 16:28:51;;;;;;;;;;;16.80;73.70;;;;;;8348988;28;19928;-70
2023/03/02 16:33:01;;;;;;;;;;;16.30;73.10;;;;;;8331287;28;20297;-70
2023/03/02 16:37:02;;;;;;;;;;;15.70;72.10;;;;;;8328273;28;19959;-70
2023/03/02 16:41:11;;;;;;;;;;;15.20;70.90;;;;;;8337163;28;20003;-69
2023/03/02 16:45:12;;;;;;;;;;;14.70;70.20;;;;;;8329653;28;20010;-69
2023/03/02 16:49:14;;;;;;;;;;;14.20;69.80;;;;;;8352068;28;20396;-70
2023/03/02 16:53:18;;;;;;;;;;;13.70;70.30;;;;;;8371403;28;20023;-70
2023/03/02 16:57:19;;;;;;;;;;;13.10;69.20;;;;;;8362820;28;19931;-69
2023/03/02 17:01:21;;;;;;;;;;;12.70;69.00;;;;;;8360406;28;19970;-70
2023/03/02 17:05:23;;;;;;;;;;;12.20;70.50;;;;;;8366119;28;19925;-70
2023/03/02 17:09:25;;;;;;;;;;;11.90;68.90;;;;;;8364973;28;19928;-69
2023/03/02 17:13:26;;;;;;;;;;;11.70;68.50;;;;;;8364188;28;19925;-69
2023/03/02 17:17:28;;;;;;;;;;;11.50;71.90;;;;;;8363833;28;19929;-69
2023/03/02 17:21:30;;;;;;;;;;;11.30;68.60;;;;;;8363755;28;19928;-70
2023/03/02 17:25:31;;;;;;;;;;;11.10;69.70;;;;;;8360087;28;19933;-70
2023/03/02 17:29:33;;;;;;;;;;;10.90;67.90;;;;;;8360785;28;20431;-70
2023/03/02 17:33:36;;;;;;;;;;;10.80;69.30;;;;;;8360558;28;20280;-70
2023/03/02 17:37:38;;;;;;;;;;;10.60;68.30;;;;;;8359745;28;19925;-70
2023/03/02 17:41:39;;;;;;;;;;;10.40;67.80;;;;;;8360905;28;19928;-70
2023/03/02 17:45:41;;;;;;;;;;;10.30;68.40;;;;;;8364859;28;19929;-69
2023/03/02 17:49:44;;;;;;;;;;;10.20;67.70;;;;;;8362135;28;19929;-69
2023/03/02 17:53:47;;;;;;;;;;;10.10;67.90;;;;;;8365685;28;19924;-69
2023/03/02 17:57:48;;;;;;;;;;;10.00;67.80;;;;;;8358798;28;19932;-70
2023/03/02 18:11:58;;;;;;;;;;;9.50;69.50;;;;;;8358146;28;19958;-69
2023/03/02 18:16:00;;;;;;;;;;;9.40;69.40;;;;;;8360734;28;19924;-70
2023/03/02 18:20:02;;;;;;;;;;;9.30;69.70;;;;;;8343568;28;20452;-69
2023/03/02 18:24:04;;;;;;;;;;;9.20;69.40;;;;;;8340976;28;20339;-69
2023/03/02 18:28:06;;;;;;;;;;;9.00;69.20;;;;;;8357770;28;20384;-70
2023/03/02 18:32:08;;;;;;;;;;;8.90;69.80;;;;;;8376579;28;19924;-70
2023/03/02 18:36:10;;;;;;;;;;;8.70;71.50;;;;;;8359691;28;19928;-69
2023/03/02 18:40:12;;;;;;;;;;;8.60;70.70;;;;;;8356643;28;19929;-69
2023/03/02 18:44:14;;;;;;;;;;;8.50;71.50;;;;;;8359647;28;19939;-69
2023/03/02 18:48:15;;;;;;;;;;;8.50;72.10;;;;;;8344475;28;19987;-69
2023/03/02 18:52:17;;;;;;;;;;;8.40;71.70;;;;;;8361022;28;19925;-69
2023/03/02 18:56:19;;;;;;;;;;;8.30;73.80;;;;;;8357464;28;20032;-69
2023/03/02 19:00:24;;;;;;;;;;;8.20;72.70;;;;;;8358039;28;20347;-69
2023/03/02 19:04:29;;;;;;;;;;;8.20;71.90;;;;;;8359732;28;20287;-69
2023/03/02 19:08:31;;;;;;;;;;;8.10;72.70;;;;;;8360615;28;19931;-70
2023/03/02 19:12:34;;;;;;;;;;;8.10;71.40;;;;;;8361994;28;20338;-69
2023/03/02 19:16:35;;;;;;;;;;;7.90;72.70;;;;;;8359530;28;19924;-69
2023/03/02 19:20:37;;;;;;;;;;;7.90;71.80;;;;;;8373595;28;19933;-69
2023/03/02 19:24:39;;;;;;;;;;;7.80;71.90;;;;;;8356165;28;19931;-69
2023/03/02 19:43:44;;;;;;;;;;;7.40;71.50;;;;;;8355828;28;20378;-70
2023/03/02 19:47:47;;;;;;;;;;;7.40;71.00;;;;;;8343886;28;19939;-70
2023/03/02 19:51:48;;;;;;;;;;;7.40;71.70;;;;;;8363657;28;20254;-69
2023/03/02 19:55:51;;;;;;;;;;;7.30;72.60;;;;;;8364066;28;19931;-69
2023/03/02 19:59:53;;;;;;;;;;;7.20;72.10;;;;;;8361252;28;19928;-69
2023/03/02 20:03:56;;;;;;;;;;;7.10;72.10;;;;;;8361355;28;19983;-69
2023/03/02 20:07:58;;;;;;;;;;;7.00;73.00;;;;;;8366629;28;19964;-69
2023/03/02 20:22:06;;;;;;;;;;;6.80;73.60;;;;;;8362024;28;19920;-69
2023/03/02 20:26:08;;;;;;;;;;;6.70;72.90;;;;;;8364839;28;19975;-69
2023/03/02 20:30:13;;;;;;;;;;;6.60;73.20;;;;;;8361641;28;19957;-69
2023/03/02 20:34:15;;;;;;;;;;;6.50;74.30;;;;;;8367418;28;19933;-69
2023/03/02 20:38:26;;;;;;;;;;;6.50;74.30;;;;;;8363079;28;19925;-69
2023/03/02 20:42:32;;;;;;;;;;;6.40;75.30;;;;;;8339803;28;20356;-69
2023/03/02 20:46:36;;;;;;;;;;;6.30;75.00;;;;;;8363209;28;19924;-69
2023/03/02 20:50:39;;;;;;;;;;;6.20;74.70;;;;;;8365072;28;20256;-69
2023/03/02 20:54:41;;;;;;;;;;;6.10;74.00;;;;;;8341461;28;20346;-70
2023/03/02 20:58:43;;;;;;;;;;;6.10;75.40;;;;;;8363116;28;19925;-70
2023/03/02 21:02:45;;;;;;;;;;;6.00;73.10;;;;;;8364917;28;20344;-70
2023/03/02 21:06:48;;;;;;;;;;;6.00;73.10;;;;;;8353914;28;20284;-70
2023/03/02 21:10:50;;;;;;;;;;;6.00;73.00;;;;;;8361733;28;19928;-69
2023/03/02 21:14:52;;;;;;;;;;;5.90;75.60;;;;;;8365559;28;19925;-69
2023/03/02 21:18:54;;;;;;;;;;;5.80;74.40;;;;;;8361261;28;19948;-69
2023/03/02 21:22:55;;;;;;;;;;;5.80;73.50;;;;;;8361059;28;19928;-69
2023/03/02 21:26:59;;;;;;;;;;;5.70;75.30;;;;;;8339871;28;19928;-69
2023/03/02 21:31:00;;;;;;;;;;;5.60;75.30;;;;;;8364715;28;19932;-69
2023/03/02 21:40:07;;;;;;;;;;;5.50;75.70;;;;;;8361435;28;19927;-70
2023/03/02 21:44:08;;;;;;;;;;;5.40;76.00;;;;;;8362474;28;19931;-70
2023/03/02 21:48:11;;;;;;;;;;;5.40;75.10;;;;;;8356321;28;19932;-70
2023/03/02 21:52:13;;;;;;;;;;;5.30;77.20;;;;;;8359582;28;19932;-70
2023/03/02 21:56:19;;;;;;;;;;;5.30;76.00;;;;;;8343926;28;19929;-69
2023/03/02 22:00:31;;;;;;;;;;;5.20;76.40;;;;;;8360227;28;19943;-70
2023/03/02 22:04:33;;;;;;;;;;;5.20;78.00;;;;;;8385951;28;20022;-70
2023/03/02 22:08:38;;;;;;;;;;;5.10;76.90;;;;;;8391338;28;19931;-69
2023/03/02 22:12:40;;;;;;;;;;;5.00;76.90;;;;;;8387397;28;20284;-70
2023/03/02 22:16:45;;;;;;;;;;;5.10;76.40;;;;;;8386607;28;20114;-69
2023/03/02 22:20:48;;;;;;;;;;;5.00;76.30;;;;;;8390524;28;19925;-70
2023/03/02 22:24:50;;;;;;;;;;;5.00;77.80;;;;;;8373480;28;20016;-69
2023/03/02 22:28:54;;;;;;;;;;;4.90;75.80;;;;;;8384893;28;19925;-69
2023/03/02 22:32:56;;;;;;;;;;;4.80;77.30;;;;;;8385908;28;19929;-69
2023/03/02 22:37:05;;;;;;;;;;;4.70;77.40;;;;;;8385359;28;20802;-69
2023/03/02 22:41:10;;;;;;;;;;;4.70;77.60;;;;;;8378246;28;19925;-69
2023/03/02 22:45:16;;;;;;;;;;;4.70;77.10;;;;;;8389286;28;19959;-69
2023/03/02 22:49:17;;;;;;;;;;;4.60;77.60;;;;;;8389042;28;19924;-69
2023/03/02 22:53:24;;;;;;;;;;;4.50;78.70;;;;;;8372707;28;19931;-70
2023/03/02 22:57:30;;;;;;;;;;;4.50;76.70;;;;;;8382810;28;20376;-70
2023/03/02 23:01:37;;;;;;;;;;;4.50;76.50;;;;;;8386827;28;19951;-70
2023/03/02 23:05:38;;;;;;;;;;;4.50;76.00;;;;;;8388001;28;20333;-70
2023/03/02 23:09:40;;;;;;;;;;;4.40;76.70;;;;;;8382385;28;19937;-70
2023/03/02 23:13:42;;;;;;;;;;;4.40;76.70;;;;;;8398483;28;19939;-70
2023/03/02 23:17:45;;;;;;;;;;;4.30;75.60;;;;;;8389053;28;19931;-70
2023/03/02 23:21:48;;;;;;;;;;;4.30;75.80;;;;;;8371777;28;19924;-70
2023/03/02 23:25:49;;;;;;;;;;;4.20;76.60;;;;;;8388727;28;19931;-70
2023/03/02 23:29:51;;;;;;;;;;;4.20;76.40;;;;;;8390049;28;19964;-70
2023/03/02 23:33:53;;;;;;;;;;;4.10;75.40;;;;;;8396592;28;20198;-70
2023/03/02 23:48:02;;;;;;;;;;;4.00;75.80;;;;;;8395059;28;20015;-70
2023/03/02 23:52:04;;;;;;;;;;;3.90;75.90;;;;;;8388153;28;19924;-70
2023/03/02 23:56:06;;;;;;;;;;;3.80;76.90;;;;;;8393728;28;20307;-70
